createdAt,value
2023-02-24T00:02:01.663Z,3.09
2023-02-24T00:04:38.679Z,3.10
2023-02-24T00:07:07.018Z,3.17
2023-02-24T00:09:33.888Z,3.12
2023-02-24T00:12:11.187Z,3.21
2023-02-24T00:14:41.699Z,3.26
2023-02-24T00:17:09.256Z,3.30
2023-02-24T00:19:37.414Z,3.31
2023-02-24T00:22:07.662Z,3.34
2023-02-24T00:24:35.987Z,3.36
2023-02-24T00:27:08.085Z,3.34
2023-02-24T00:29:37.885Z,3.36
2023-02-24T00:32:07.531Z,3.38
2023-02-24T00:34:38.117Z,3.41
2023-02-24T00:37:07.126Z,3.39
2023-02-24T00:39:35.881Z,3.43
2023-02-24T00:42:05.791Z,3.41
2023-02-24T00:44:33.354Z,3.43
2023-02-24T00:47:05.070Z,3.45
2023-02-24T00:49:33.057Z,3.50
2023-02-24T00:52:00.467Z,3.48
2023-02-24T00:54:28.510Z,3.46
2023-02-24T00:56:56.370Z,3.48
2023-02-24T00:59:26.893Z,3.45
2023-02-24T01:01:54.996Z,3.49
2023-02-24T01:04:23.255Z,3.49
2023-02-24T01:07:00.399Z,3.38
2023-02-24T01:09:31.156Z,3.45
2023-02-24T01:12:18.279Z,3.45
2023-02-24T01:14:47.949Z,3.47
2023-02-24T01:17:18.453Z,3.50
2023-02-24T01:19:49.394Z,3.52
2023-02-24T01:22:19.822Z,3.48
2023-02-24T01:24:48.440Z,3.52
2023-02-24T01:27:19.056Z,3.53
2023-02-24T01:29:47.714Z,3.60
2023-02-24T01:32:21.621Z,3.62
2023-02-24T01:34:52.276Z,3.64
2023-02-24T01:37:20.068Z,3.63
2023-02-24T01:39:48.030Z,3.71
2023-02-24T01:42:20.080Z,3.69
2023-02-24T01:44:47.081Z,3.71
2023-02-24T01:47:16.734Z,3.70
2023-02-24T01:49:51.751Z,3.72
2023-02-24T01:52:35.958Z,3.69
2023-02-24T01:55:16.875Z,3.69
2023-02-24T01:57:46.279Z,3.79
2023-02-24T02:00:42.128Z,3.79
2023-02-24T02:03:37.284Z,3.78
2023-02-24T02:06:13.447Z,3.75
2023-02-24T02:08:42.647Z,3.77
2023-02-24T02:11:23.172Z,3.80
2023-02-24T02:13:52.745Z,3.83
2023-02-24T02:16:48.018Z,3.84
2023-02-24T02:19:55.641Z,3.75
2023-02-24T02:23:00.652Z,3.80
2023-02-24T02:25:42.738Z,3.84
2023-02-24T02:28:21.341Z,3.81
2023-02-24T02:31:15.912Z,3.88
2023-02-24T02:34:40.197Z,3.85
2023-02-24T02:37:33.562Z,3.87
2023-02-24T02:40:18.746Z,3.86
2023-02-24T02:43:04.324Z,3.92
2023-02-24T02:45:47.993Z,3.92
2023-02-24T02:48:27.658Z,3.94
2023-02-24T02:51:11.548Z,3.96
2023-02-24T02:53:52.950Z,3.97
2023-02-24T02:56:27.203Z,4.01
2023-02-24T02:58:56.997Z,4.03
2023-02-24T03:01:29.204Z,4.04
2023-02-24T03:04:01.934Z,4.04
2023-02-24T03:06:34.777Z,4.07
2023-02-24T03:09:16.259Z,4.05
2023-02-24T03:11:59.597Z,4.05
2023-02-24T03:14:31.092Z,4.06
2023-02-24T03:17:00.087Z,4.08
2023-02-24T03:19:37.475Z,4.07
2023-02-24T03:22:15.082Z,4.09
2023-02-24T03:24:44.400Z,4.13
2023-02-24T03:27:23.243Z,4.03
2023-02-24T03:29:56.188Z,4.12
2023-02-24T03:32:51.509Z,4.07
2023-02-24T03:35:24.834Z,4.13
2023-02-24T03:37:55.417Z,4.11
2023-02-24T03:40:28.654Z,4.14
2023-02-24T03:43:05.995Z,4.12
2023-02-24T03:45:38.199Z,4.08
2023-02-24T03:48:08.595Z,4.10
2023-02-24T03:50:39.266Z,4.13
2023-02-24T03:53:46.820Z,4.04
2023-02-24T03:56:34.687Z,4.15
2023-02-24T03:59:18.963Z,4.16
2023-02-24T04:02:04.753Z,4.18
2023-02-24T04:05:05.981Z,4.20
2023-02-24T04:08:01.206Z,4.22
2023-02-24T04:10:58.934Z,4.21
2023-02-24T04:13:59.950Z,4.20
2023-02-24T04:16:36.638Z,4.19
2023-02-24T04:19:14.453Z,4.20
2023-02-24T04:21:44.797Z,4.20
2023-02-24T04:24:16.004Z,4.21
2023-02-24T04:26:46.035Z,4.20
2023-02-24T04:29:23.127Z,4.28
2023-02-24T04:32:01.363Z,4.28
2023-02-24T04:34:32.595Z,4.30
2023-02-24T04:37:02.517Z,4.30
2023-02-24T04:39:32.336Z,4.36
2023-02-24T04:42:01.841Z,4.39
2023-02-24T04:44:29.296Z,4.41
2023-02-24T04:46:56.700Z,4.44
2023-02-24T04:49:23.814Z,4.48
2023-02-24T04:51:51.719Z,4.51
2023-02-24T04:54:20.938Z,4.51
2023-02-24T04:56:51.062Z,4.51
2023-02-24T04:59:20.243Z,4.58
2023-02-24T05:01:47.785Z,4.54
2023-02-24T05:04:14.921Z,4.55
2023-02-24T05:06:44.196Z,4.58
2023-02-24T05:09:19.610Z,4.52
2023-02-24T05:11:49.771Z,4.57
2023-02-24T05:14:21.164Z,4.62
2023-02-24T05:16:49.775Z,4.53
2023-02-24T05:19:38.969Z,4.57
2023-02-24T05:22:07.580Z,4.63
2023-02-24T05:24:34.867Z,4.61
2023-02-24T05:27:04.034Z,4.64
2023-02-24T05:29:35.765Z,4.60
2023-02-24T05:32:05.843Z,4.67
2023-02-24T05:34:34.096Z,4.67
2023-02-24T05:37:10.849Z,4.65
2023-02-24T05:39:38.201Z,4.71
2023-02-24T05:42:06.997Z,4.68
2023-02-24T05:44:35.885Z,4.72
2023-02-24T05:47:05.726Z,4.70
2023-02-24T05:49:35.826Z,4.64
2023-02-24T05:52:09.051Z,4.67
2023-02-24T05:54:40.763Z,4.68
2023-02-24T05:57:12.191Z,4.67
2023-02-24T05:59:44.798Z,4.71
2023-02-24T06:02:14.964Z,4.71
2023-02-24T06:04:51.481Z,4.70
2023-02-24T06:07:25.338Z,4.76
2023-02-24T06:09:57.245Z,4.78
2023-02-24T06:12:30.267Z,4.79
2023-02-24T06:15:00.228Z,4.87
2023-02-24T06:17:28.773Z,4.86
2023-02-24T06:19:55.693Z,4.90
2023-02-24T06:22:25.954Z,4.95
2023-02-24T06:24:55.617Z,4.96
2023-02-24T06:27:25.270Z,4.94
2023-02-24T06:29:54.931Z,5.02
2023-02-24T06:32:25.591Z,5.06
2023-02-24T06:34:54.115Z,5.06
2023-02-24T06:37:23.536Z,5.11
2023-02-24T06:39:50.631Z,5.12
2023-02-24T06:42:17.775Z,5.17
2023-02-24T06:44:44.749Z,5.14
2023-02-24T06:47:14.803Z,5.19
2023-02-24T06:49:43.081Z,5.16
2023-02-24T06:52:11.902Z,5.19
2023-02-24T06:54:39.056Z,5.20
2023-02-24T06:57:06.217Z,5.20
2023-02-24T06:59:33.101Z,5.23
2023-02-24T07:02:04.227Z,5.17
2023-02-24T07:04:31.217Z,5.19
2023-02-24T07:07:03.559Z,5.18
2023-02-24T07:09:32.251Z,5.24
2023-02-24T07:12:02.885Z,5.24
2023-02-24T07:14:31.565Z,5.24
2023-02-24T07:16:59.866Z,5.28
2023-02-24T07:19:32.506Z,5.30
2023-02-24T07:22:03.286Z,5.30
2023-02-24T07:24:36.595Z,5.30
2023-02-24T07:27:13.068Z,5.36
2023-02-24T07:29:40.169Z,5.31
2023-02-24T07:32:09.635Z,5.41
2023-02-24T07:34:40.695Z,5.42
2023-02-24T07:37:09.476Z,5.50
2023-02-24T07:39:39.485Z,5.47
2023-02-24T07:42:09.635Z,5.53
2023-02-24T07:44:36.489Z,5.55
2023-02-24T07:47:08.161Z,5.55
2023-02-24T07:49:35.636Z,5.62
2023-02-24T07:52:02.809Z,5.63
2023-02-24T07:54:30.693Z,5.68
2023-02-24T07:56:59.654Z,5.75
2023-02-24T07:59:33.579Z,5.73
2023-02-24T08:02:05.084Z,5.79
2023-02-24T08:04:33.525Z,5.82
2023-02-24T08:07:03.659Z,5.89
2023-02-24T08:09:46.961Z,5.89
2023-02-24T08:12:18.313Z,5.97
2023-02-24T08:14:51.119Z,5.99
2023-02-24T08:17:24.106Z,6.04
2023-02-24T08:20:11.842Z,6.11
2023-02-24T08:22:44.495Z,6.16
2023-02-24T08:25:18.907Z,6.15
2023-02-24T08:28:07.426Z,6.22
2023-02-24T08:30:39.570Z,6.30
2023-02-24T08:33:11.192Z,6.38
2023-02-24T08:35:45.119Z,6.39
2023-02-24T08:38:19.252Z,6.43
2023-02-24T08:40:51.030Z,6.49
2023-02-24T08:43:31.050Z,6.60
2023-02-24T08:46:21.601Z,6.63
2023-02-24T08:48:57.997Z,6.69
2023-02-24T08:51:31.175Z,6.71
2023-02-24T08:54:11.717Z,6.76
2023-02-24T08:56:43.931Z,6.88
2023-02-24T08:59:43.235Z,6.88
2023-02-24T09:02:23.656Z,6.90
2023-02-24T09:04:53.455Z,6.99
2023-02-24T09:07:35.631Z,6.98
2023-02-24T09:10:18.256Z,7.01
2023-02-24T09:12:45.493Z,7.09
2023-02-24T09:15:15.582Z,7.14
2023-02-24T09:17:45.044Z,7.19
2023-02-24T09:20:33.442Z,7.22
2023-02-24T09:23:09.756Z,7.31
2023-02-24T09:25:49.805Z,7.39
2023-02-24T09:28:25.162Z,7.44
2023-02-24T09:30:55.988Z,7.43
2023-02-24T09:33:39.676Z,7.53
2023-02-24T09:36:10.836Z,7.53
2023-02-24T09:39:01.889Z,7.55
2023-02-24T09:41:54.386Z,7.61
2023-02-24T09:44:33.671Z,7.62
2023-02-24T09:47:11.098Z,7.65
2023-02-24T09:50:51.266Z,7.70
2023-02-24T09:53:17.679Z,7.85
2023-02-24T09:56:06.683Z,7.92
2023-02-24T09:59:10.512Z,8.02
2023-02-24T10:01:48.712Z,8.16
2023-02-24T10:04:21.412Z,8.28
2023-02-24T10:06:59.857Z,8.35
2023-02-24T10:09:41.657Z,8.39
2023-02-24T10:12:19.815Z,8.49
2023-02-24T10:15:46.525Z,8.40
2023-02-24T10:18:29.411Z,8.39
2023-02-24T10:21:49.566Z,8.43
2023-02-24T10:24:30.270Z,8.44
2023-02-24T10:27:08.949Z,8.43
2023-02-24T10:30:01.285Z,8.63
2023-02-24T10:32:41.524Z,8.76
2023-02-24T10:35:19.104Z,8.86
2023-02-24T10:37:47.203Z,8.92
2023-02-24T10:40:26.643Z,8.97
2023-02-24T10:43:11.063Z,9.00
2023-02-24T10:45:45.591Z,9.08
2023-02-24T10:48:42.622Z,9.03
2023-02-24T10:51:22.921Z,9.02
2023-02-24T10:53:53.549Z,9.09
2023-02-24T10:56:27.163Z,9.12
2023-02-24T10:59:29.292Z,9.12
2023-02-24T11:02:16.933Z,9.12
2023-02-24T11:04:54.261Z,9.16
2023-02-24T11:07:44.156Z,9.12
2023-02-24T11:10:26.354Z,9.15
2023-02-24T11:13:14.418Z,9.12
2023-02-24T11:16:07.875Z,9.09
2023-02-24T11:18:35.136Z,9.15
2023-02-24T11:21:09.461Z,9.20
2023-02-24T11:23:44.359Z,9.16
2023-02-24T11:26:35.145Z,9.25
2023-02-24T11:29:26.138Z,9.24
2023-02-24T11:32:15.549Z,9.31
2023-02-24T11:34:59.859Z,9.37
2023-02-24T11:37:43.430Z,9.41
2023-02-24T11:40:29.679Z,9.47
2023-02-24T11:43:07.431Z,9.47
2023-02-24T11:45:39.494Z,9.48
2023-02-24T11:48:29.814Z,9.46
2023-02-24T11:51:06.653Z,9.47
2023-02-24T11:54:01.520Z,9.48
2023-02-24T11:56:34.500Z,9.42
2023-02-24T11:59:24.242Z,9.41
2023-02-24T12:02:11.589Z,9.43
2023-02-24T12:04:51.279Z,9.38
2023-02-24T12:07:58.922Z,9.48
2023-02-24T12:10:36.776Z,9.52
2023-02-24T12:13:46.252Z,9.53
2023-02-24T12:16:35.596Z,9.52
2023-02-24T12:19:20.061Z,9.50
2023-02-24T12:22:00.224Z,9.60
2023-02-24T12:24:27.089Z,9.60
2023-02-24T12:27:11.369Z,9.63
2023-02-24T12:29:55.028Z,9.67
2023-02-24T12:32:47.299Z,9.76
2023-02-24T12:35:37.858Z,9.76
2023-02-24T12:38:29.590Z,9.94
2023-02-24T12:41:36.982Z,10.03
2023-02-24T12:44:37.856Z,10.11
2023-02-24T12:47:17.653Z,10.19
2023-02-24T12:50:18.855Z,10.11
2023-02-24T12:53:19.492Z,10.14
2023-02-24T12:56:19.213Z,10.14
2023-02-24T12:58:51.250Z,10.25
2023-02-24T13:01:27.563Z,10.23
2023-02-24T13:04:13.114Z,10.21
2023-02-24T13:06:53.358Z,10.11
2023-02-24T13:09:47.293Z,10.00
2023-02-24T13:12:55.185Z,9.70
2023-02-24T13:15:31.524Z,9.47
2023-02-24T13:17:59.386Z,9.17
2023-02-24T13:20:36.996Z,8.92
2023-02-24T13:23:20.158Z,8.76
2023-02-24T13:25:55.078Z,8.55
2023-02-24T13:28:33.374Z,8.39
2023-02-24T13:31:01.152Z,8.34
2023-02-24T13:33:44.843Z,8.19
2023-02-24T13:36:24.320Z,8.09
2023-02-24T13:39:03.787Z,8.07
2023-02-24T13:41:30.489Z,8.03
2023-02-24T13:44:28.740Z,8.08
2023-02-24T13:47:35.923Z,8.06
2023-02-24T13:50:31.489Z,8.15
2023-02-24T13:53:34.778Z,8.18
2023-02-24T13:56:14.066Z,8.24
2023-02-24T13:59:05.206Z,8.23
2023-02-24T14:01:46.230Z,8.30
2023-02-24T14:04:35.498Z,8.35
2023-02-24T14:07:12.235Z,8.45
2023-02-24T14:09:46.965Z,8.48
2023-02-24T14:12:25.885Z,8.50
2023-02-24T14:14:53.927Z,8.56
2023-02-24T14:17:36.221Z,8.61
2023-02-24T14:20:19.309Z,8.66
2023-02-24T14:22:51.036Z,8.67
2023-02-24T14:25:18.321Z,8.70
2023-02-24T14:27:50.842Z,8.74
2023-02-24T14:30:34.616Z,8.75
2023-02-24T14:33:03.648Z,8.87
2023-02-24T14:35:46.125Z,9.00
2023-02-24T14:38:39.966Z,9.11
2023-02-24T14:41:20.258Z,9.22
2023-02-24T14:43:47.096Z,9.28
2023-02-24T14:46:14.078Z,9.28
2023-02-24T14:48:40.936Z,9.27
2023-02-24T14:51:23.923Z,9.21
2023-02-24T14:53:56.860Z,9.22
2023-02-24T14:56:33.181Z,9.16
2023-02-24T14:59:14.763Z,9.18
2023-02-24T15:01:48.109Z,9.10
2023-02-24T15:04:37.712Z,9.05
2023-02-24T15:07:21.590Z,9.05
2023-02-24T15:09:50.137Z,9.06
2023-02-24T15:12:32.717Z,9.08
2023-02-24T15:15:08.244Z,9.11
2023-02-24T15:17:40.757Z,9.09
2023-02-24T15:20:32.144Z,9.12
2023-02-24T15:23:00.108Z,9.15
2023-02-24T15:25:42.389Z,9.11
2023-02-24T15:28:27.109Z,9.07
2023-02-24T15:31:18.232Z,9.03
2023-02-24T15:33:54.973Z,8.95
2023-02-24T15:36:26.336Z,8.99
2023-02-24T15:39:02.144Z,9.04
2023-02-24T15:41:46.330Z,9.02
2023-02-24T15:44:27.713Z,9.03
2023-02-24T15:46:56.736Z,9.00
2023-02-24T15:49:24.110Z,9.00
2023-02-24T15:51:53.682Z,8.96
2023-02-24T15:54:32.397Z,8.99
2023-02-24T15:57:01.122Z,8.99
2023-02-24T15:59:29.354Z,9.01
2023-02-24T16:01:56.188Z,9.01
2023-02-24T16:04:24.314Z,9.03
2023-02-24T16:06:55.752Z,8.99
2023-02-24T16:09:28.543Z,8.95
2023-02-24T16:11:55.828Z,8.94
2023-02-24T16:14:23.032Z,8.91
2023-02-24T16:16:50.011Z,8.86
2023-02-24T16:19:17.127Z,8.83
2023-02-24T16:21:44.663Z,8.78
2023-02-24T16:24:11.481Z,8.73
2023-02-24T16:26:41.010Z,8.74
2023-02-24T16:29:14.486Z,8.70
2023-02-24T16:31:42.402Z,8.65
2023-02-24T16:34:16.211Z,8.65
2023-02-24T16:36:44.269Z,8.63
2023-02-24T16:39:14.390Z,8.56
2023-02-24T16:41:41.402Z,8.55
2023-02-24T16:44:09.807Z,8.52
2023-02-24T16:46:40.261Z,8.49
2023-02-24T16:49:10.491Z,8.44
2023-02-24T16:51:39.206Z,8.36
2023-02-24T16:54:06.253Z,8.32
2023-02-24T16:56:33.108Z,8.26
2023-02-24T16:58:59.944Z,8.20
2023-02-24T17:01:27.085Z,8.15
2023-02-24T17:03:54.404Z,8.05
2023-02-24T17:06:22.539Z,7.94
2023-02-24T17:08:50.998Z,7.84
2023-02-24T17:11:20.751Z,7.79
2023-02-24T17:13:47.605Z,7.71
2023-02-24T17:16:17.620Z,7.64
2023-02-24T17:18:47.400Z,7.56
2023-02-24T17:21:20.914Z,7.47
2023-02-24T17:26:32.615Z,7.28
2023-02-24T17:29:05.600Z,7.16
2023-02-24T17:31:33.232Z,7.05
2023-02-24T17:34:00.612Z,6.99
2023-02-24T17:36:37.094Z,6.91
2023-02-24T17:39:05.665Z,6.83
2023-02-24T17:41:36.210Z,6.76
2023-02-24T17:44:04.142Z,6.61
2023-02-24T17:46:31.201Z,6.55
2023-02-24T17:48:57.988Z,6.46
2023-02-24T17:51:24.774Z,6.42
2023-02-24T17:53:51.852Z,6.41
2023-02-24T17:56:18.665Z,6.39
2023-02-24T17:58:45.435Z,6.36
2023-02-24T18:01:12.885Z,6.33
2023-02-24T18:03:39.972Z,6.29
2023-02-24T18:06:11.701Z,6.28
2023-02-24T18:08:43.175Z,6.25
2023-02-24T18:11:17.056Z,6.20
2023-02-24T18:13:51.661Z,6.22
2023-02-24T18:16:20.260Z,6.16
2023-02-24T18:18:47.316Z,6.14
2023-02-24T18:21:17.934Z,6.10
2023-02-24T18:23:46.433Z,6.05
2023-02-24T18:26:13.450Z,6.02
2023-02-24T18:28:41.027Z,5.95
2023-02-24T18:31:18.400Z,5.91
2023-02-24T18:33:49.129Z,5.87
2023-02-24T18:36:26.919Z,5.79
2023-02-24T18:39:03.141Z,5.74
2023-02-24T18:41:35.914Z,5.64
2023-02-24T18:44:24.293Z,5.58
2023-02-24T18:46:51.113Z,5.52
2023-02-24T18:49:28.237Z,5.46
2023-02-24T18:51:55.124Z,5.41
2023-02-24T18:54:21.984Z,5.34
2023-02-24T18:56:48.841Z,5.31
2023-02-24T18:59:15.707Z,5.25
2023-02-24T19:01:42.864Z,5.22
2023-02-24T19:04:09.905Z,5.17
2023-02-24T19:06:37.027Z,5.14
2023-02-24T19:09:10.917Z,5.08
2023-02-24T19:11:40.103Z,5.04
2023-02-24T19:14:07.423Z,5.00
2023-02-24T19:16:34.781Z,4.96
2023-02-24T19:19:01.766Z,4.92
2023-02-24T19:21:31.641Z,4.85
2023-02-24T19:24:08.449Z,4.76
2023-02-24T19:26:35.460Z,4.73
2023-02-24T19:29:03.953Z,4.66
2023-02-24T19:31:33.252Z,4.59
2023-02-24T19:34:10.534Z,4.51
2023-02-24T19:36:39.040Z,4.43
2023-02-24T19:39:09.882Z,4.35
2023-02-24T19:41:37.964Z,4.29
2023-02-24T19:44:04.837Z,4.20
2023-02-24T19:46:34.158Z,4.13
2023-02-24T19:49:02.154Z,4.07
2023-02-24T19:51:29.775Z,3.98
2023-02-24T19:53:59.604Z,3.93
2023-02-24T19:56:29.678Z,3.86
2023-02-24T19:58:59.014Z,3.79
2023-02-24T20:01:28.221Z,3.73
2023-02-24T20:04:01.617Z,3.69
2023-02-24T20:06:41.539Z,3.62
2023-02-24T20:09:15.678Z,3.53
2023-02-24T20:11:44.942Z,3.47
2023-02-24T20:14:13.317Z,3.43
2023-02-24T20:16:41.913Z,3.40
2023-02-24T20:19:11.682Z,3.35
2023-02-24T20:21:39.796Z,3.31
2023-02-24T20:24:14.531Z,3.28
2023-02-24T20:26:46.391Z,3.26
2023-02-24T20:29:15.215Z,3.21
2023-02-24T20:31:42.915Z,3.17
2023-02-24T20:34:10.815Z,3.21
2023-02-24T20:36:38.023Z,3.23
2023-02-24T20:39:06.984Z,3.23
2023-02-24T20:41:34.498Z,3.26
2023-02-24T20:44:01.768Z,3.27
2023-02-24T20:46:31.980Z,3.27
2023-02-24T20:49:06.631Z,3.24
2023-02-24T20:51:37.643Z,3.22
2023-02-24T20:54:06.601Z,3.21
2023-02-24T20:56:37.045Z,3.22
2023-02-24T20:59:19.310Z,3.23
2023-02-24T21:01:48.486Z,3.23
2023-02-24T21:04:19.215Z,3.23
2023-02-24T21:06:48.234Z,3.21
2023-02-24T21:09:16.224Z,3.14
2023-02-24T21:11:43.238Z,3.15
2023-02-24T21:14:15.928Z,3.12
2023-02-24T21:16:42.934Z,3.15
2023-02-24T21:19:09.769Z,3.20
2023-02-24T21:21:36.598Z,3.22
2023-02-24T21:24:03.672Z,3.29
2023-02-24T21:26:30.532Z,3.35
2023-02-24T21:28:59.381Z,3.36
2023-02-24T21:31:27.145Z,3.42
2023-02-24T21:33:55.350Z,3.46
2023-02-24T21:36:26.445Z,3.46
2023-02-24T21:38:54.469Z,3.49
2023-02-24T21:41:23.066Z,3.46
2023-02-24T21:43:55.208Z,3.47
2023-02-24T21:46:23.050Z,3.45
2023-02-24T21:48:57.718Z,3.49
2023-02-24T21:51:26.611Z,3.48
2023-02-24T21:53:57.072Z,3.45
2023-02-24T21:56:29.503Z,3.41
2023-02-24T21:59:03.522Z,3.44
2023-02-24T22:01:35.209Z,3.48
2023-02-24T22:04:07.521Z,3.54
2023-02-24T22:06:36.226Z,3.55
2023-02-24T22:09:06.983Z,3.56
2023-02-24T22:11:36.883Z,3.53
2023-02-24T22:14:08.121Z,3.48
2023-02-24T22:16:35.256Z,3.51
2023-02-24T22:19:02.087Z,3.52
2023-02-24T22:21:30.543Z,3.49
2023-02-24T22:24:00.847Z,3.45
2023-02-24T22:26:30.534Z,3.48
2023-02-24T22:28:59.021Z,3.52
2023-02-24T22:31:30.803Z,3.54
2023-02-24T22:33:58.875Z,3.54
2023-02-24T22:36:30.993Z,3.52
2023-02-24T22:39:00.205Z,3.53
2023-02-24T22:41:33.848Z,3.54
2023-02-24T22:44:03.322Z,3.57
2023-02-24T22:46:34.800Z,3.53
2023-02-24T22:49:02.200Z,3.64
2023-02-24T22:51:29.192Z,3.66
2023-02-24T22:53:56.476Z,3.69
2023-02-24T22:56:27.082Z,3.73
2023-02-24T22:58:54.697Z,3.78
2023-02-24T23:01:31.437Z,3.82
2023-02-24T23:04:04.257Z,3.83
2023-02-24T23:06:31.553Z,3.83
2023-02-24T23:09:01.009Z,3.83
2023-02-24T23:11:34.999Z,3.72
2023-02-24T23:14:06.156Z,3.73
2023-02-24T23:16:35.350Z,3.64
2023-02-24T23:19:13.321Z,3.59
2023-02-24T23:21:43.426Z,3.53
2023-02-24T23:24:12.758Z,3.43
2023-02-24T23:26:47.719Z,3.36
2023-02-24T23:29:17.807Z,3.30
2023-02-24T23:31:46.520Z,3.34
2023-02-24T23:34:14.650Z,3.31
2023-02-24T23:36:46.363Z,3.30
2023-02-24T23:39:18.391Z,3.24
2023-02-24T23:41:45.594Z,3.24
2023-02-24T23:44:12.865Z,3.23
2023-02-24T23:46:41.827Z,3.20
2023-02-24T23:49:09.039Z,3.25
2023-02-24T23:51:47.146Z,3.26
2023-02-24T23:54:15.969Z,3.28
2023-02-24T23:56:42.991Z,3.36
2023-02-24T23:59:10.036Z,3.38
